KNTD/NTD METAR and TAF weather

Enter ICAO airport designator
Station Type Date Time Source
KNTD METAR 2021/03/05 19:52 UTC NOAA

KNTD 051952Z 28011KT 10SM FEW280 18/07 A3014 RMK AO2 SLP209 T01780072 VISNO N $


Station Type Date Time Source
KNTD Decoded METAR 2021/03/05 19:52 UTC NOAA

NAWCWPNS POINT MUGU, CA, CA, United States (KNTD) 34-07N 119-07W 2M
Mar 05, 2021 - 02:52 PM EST / 2021.03.05 1952 UTC
Wind: from the W (280 degrees) at 13 MPH (11 KT):0
Visibility: 10 mile(s):0
Sky conditions: mostly clear
Temperature: 64.0 F (17.8 C)
Dew Point: 45.0 F (7.2 C)
Relative Humidity: 49%
Pressure (altimeter): 30.14 in. Hg (1020 hPa)
ob: KNTD 051952Z 28011KT 10SM FEW280 18/07 A3014 RMK AO2 SLP209 T01780072 VISNO N
cycle: 20

Station Type Date Time Source
KNTD TAF 2021/03/05 15:57 UTC NOAA

TAF TAF KNTD 0515/0615 01007KT 9999 SKC QNH3012INS
TEMPO 0516/0518 VRB05KT
BECMG 0518/0520 27011KT 9999 FEW280 QNH3000INS
FM060100 VRB06KT 9999 FEW280 QNH2995INS
TEMPO 0601/0607 31007KT T18/0521Z T06/0514Z FS30016

Example: see airport list